createdAt,value
2022-08-21T19:52:53.704Z,4.53
2022-08-21T19:55:44.005Z,4.57
2022-08-21T19:58:36.262Z,4.90
2022-08-21T20:01:24.051Z,4.40
2022-08-21T20:07:16.647Z,5.20
2022-08-21T20:10:11.838Z,5.65
2022-08-21T20:15:43.925Z,4.97
2022-08-21T20:18:31.401Z,5.55
2022-08-21T20:21:17.509Z,5.65
2022-08-21T20:24:03.287Z,5.43
2022-08-21T20:26:50.427Z,5.20
2022-08-21T20:29:39.138Z,5.78
2022-08-21T20:32:24.586Z,5.35
2022-08-21T20:38:17.590Z,6.07
2022-08-21T20:41:03.704Z,5.30
2022-08-21T20:43:50.682Z,5.20
2022-08-21T20:46:36.172Z,5.70
2022-08-21T20:49:27.811Z,5.25
2022-08-21T20:52:17.277Z,5.07
2022-08-21T20:55:15.319Z,4.85
2022-08-21T20:58:12.645Z,4.78
2022-08-21T21:01:03.324Z,4.78
2022-08-21T21:04:10.034Z,4.95
2022-08-21T21:07:02.699Z,3.90
2022-08-21T21:09:55.441Z,4.00
2022-08-21T21:12:43.931Z,3.40
2022-08-21T21:15:32.678Z,2.80
2022-08-21T21:18:35.095Z,3.33
2022-08-21T21:21:34.921Z,2.90
2022-08-21T21:24:29.028Z,2.95
2022-08-21T21:27:25.974Z,3.13
2022-08-21T21:30:30.603Z,2.85
2022-08-21T21:33:16.621Z,2.65
2022-08-21T21:36:24.627Z,3.10
2022-08-21T21:43:12.200Z,2.50
2022-08-21T21:46:03.450Z,2.60
2022-08-21T21:49:11.436Z,2.58
2022-08-21T21:52:14.013Z,3.03
2022-08-21T21:55:14.156Z,2.75
2022-08-21T21:58:29.355Z,3.75
2022-08-21T22:01:23.818Z,4.25
2022-08-21T22:04:18.974Z,4.70
2022-08-21T22:07:09.407Z,4.70
2022-08-21T22:10:06.286Z,5.60
2022-08-21T22:13:51.335Z,5.45
2022-08-21T22:16:37.594Z,6.07
2022-08-21T22:19:33.767Z,4.88
2022-08-21T22:22:25.475Z,3.85
2022-08-21T22:25:24.096Z,4.55
2022-08-21T22:28:18.048Z,4.70
2022-08-21T22:31:19.733Z,4.82
2022-08-21T22:34:18.486Z,4.72
2022-08-21T22:37:10.101Z,4.90
2022-08-21T22:39:55.589Z,5.65
2022-08-21T22:42:42.750Z,6.00
2022-08-21T22:45:30.831Z,6.28
2022-08-21T22:48:22.547Z,5.70
2022-08-21T22:51:15.101Z,6.10
2022-08-21T22:54:02.047Z,6.43
2022-08-21T22:56:59.205Z,6.90
2022-08-21T23:00:14.477Z,6.20
2022-08-21T23:03:02.229Z,6.57
2022-08-21T23:05:49.361Z,7.68
2022-08-21T23:08:39.131Z,7.13
2022-08-21T23:11:45.163Z,7.03
2022-08-21T23:14:36.266Z,7.22
2022-08-21T23:20:41.728Z,7.18
2022-08-21T23:23:31.004Z,7.07
2022-08-21T23:26:31.281Z,5.88
2022-08-21T23:29:29.296Z,6.75
2022-08-21T23:32:25.064Z,5.55
2022-08-21T23:35:54.321Z,6.43
2022-08-21T23:39:02.527Z,5.07
2022-08-21T23:42:18.796Z,5.53
2022-08-21T23:45:33.365Z,5.82
2022-08-21T23:48:35.096Z,5.03
2022-08-21T23:55:28.125Z,5.32
2022-08-21T23:58:35.572Z,5.95
